createdAt,value
2023-02-05T00:00:50.273Z,6.70
2023-02-05T00:03:17.994Z,6.65
2023-02-05T00:05:45.694Z,6.15
2023-02-05T00:08:13.378Z,6.75
2023-02-05T00:10:42.435Z,6.93
2023-02-05T00:13:10.212Z,6.80
2023-02-05T00:15:41.389Z,6.57
2023-02-05T00:18:09.046Z,7.00
2023-02-05T00:20:37.300Z,7.55
2023-02-05T00:23:04.991Z,6.82
2023-02-05T00:25:33.043Z,7.50
2023-02-05T00:28:02.420Z,7.70
2023-02-05T00:30:30.334Z,7.53
2023-02-05T00:32:58.099Z,7.22
2023-02-05T00:35:25.763Z,7.32
2023-02-05T00:37:57.040Z,6.95
2023-02-05T00:40:24.730Z,7.43
2023-02-05T00:42:52.405Z,7.30
2023-02-05T00:45:21.445Z,6.85
2023-02-05T00:47:49.094Z,8.07
2023-02-05T00:50:21.134Z,8.15
2023-02-05T00:52:48.795Z,7.28
2023-02-05T00:55:16.647Z,6.47
2023-02-05T00:57:44.295Z,6.60
2023-02-05T01:00:13.000Z,6.63
2023-02-05T01:02:42.103Z,7.00
2023-02-05T01:05:10.282Z,7.78
2023-02-05T01:07:38.008Z,8.30
2023-02-05T01:10:06.415Z,8.50
2023-02-05T01:12:34.254Z,8.25
2023-02-05T01:15:02.457Z,7.95
2023-02-05T01:17:30.167Z,8.02
2023-02-05T01:19:59.205Z,8.15
2023-02-05T01:22:27.079Z,7.00
2023-02-05T01:24:54.976Z,8.35
2023-02-05T01:27:22.630Z,8.50
2023-02-05T01:29:50.323Z,8.73
2023-02-05T01:32:18.331Z,8.38
2023-02-05T01:34:46.478Z,8.95
2023-02-05T01:37:15.638Z,8.90
2023-02-05T01:39:43.439Z,8.75
2023-02-05T01:42:19.332Z,8.10
2023-02-05T01:45:36.213Z,9.00
2023-02-05T01:50:37.398Z,8.45
2023-02-05T01:53:10.885Z,9.45
2023-02-05T01:55:44.810Z,8.80
2023-02-05T01:58:15.798Z,9.50
2023-02-05T02:00:44.270Z,9.40
2023-02-05T02:03:14.228Z,8.65
2023-02-05T02:05:41.941Z,8.38
2023-02-05T02:08:13.543Z,8.48
2023-02-05T02:10:44.536Z,8.13
2023-02-05T02:13:14.106Z,7.75
2023-02-05T02:15:42.674Z,8.70
2023-02-05T02:18:29.136Z,7.72
2023-02-05T02:21:20.288Z,8.05
2023-02-05T02:24:07.772Z,7.82
2023-02-05T02:26:54.524Z,8.45
2023-02-05T02:29:32.955Z,8.18
2023-02-05T02:32:04.331Z,7.75
2023-02-05T02:34:38.829Z,8.85
2023-02-05T02:37:10.731Z,8.52
2023-02-05T02:39:44.656Z,8.45
2023-02-05T02:42:16.472Z,8.05
2023-02-05T02:44:49.985Z,7.45
2023-02-05T02:47:21.749Z,8.18
2023-02-05T02:49:53.546Z,8.65
2023-02-05T02:52:22.401Z,7.97
2023-02-05T02:54:53.702Z,8.23
2023-02-05T02:57:25.078Z,8.57
2023-02-05T02:59:57.608Z,8.82
2023-02-05T03:02:27.816Z,7.68
2023-02-05T03:04:58.608Z,7.72
2023-02-05T03:07:29.555Z,8.35
2023-02-05T03:10:01.701Z,8.50
2023-02-05T03:12:29.522Z,7.28
2023-02-05T03:14:58.962Z,7.97
2023-02-05T03:17:28.558Z,7.82
2023-02-05T03:20:03.397Z,7.18
2023-02-05T03:22:31.096Z,7.03
2023-02-05T03:24:58.837Z,7.20
2023-02-05T03:27:26.542Z,7.22
2023-02-05T03:29:54.384Z,6.90
2023-02-05T03:32:36.478Z,7.40
2023-02-05T03:35:24.260Z,7.57
2023-02-05T03:38:07.092Z,7.90
2023-02-05T03:40:44.697Z,8.13
2023-02-05T03:43:17.191Z,7.65
2023-02-05T03:45:51.095Z,8.52
2023-02-05T03:48:40.418Z,8.10
2023-02-05T03:51:20.171Z,7.78
2023-02-05T03:53:56.623Z,8.40
2023-02-05T03:56:29.727Z,8.68
2023-02-05T03:58:58.991Z,7.68
2023-02-05T04:01:27.051Z,7.90
2023-02-05T04:03:56.606Z,8.00
2023-02-05T04:06:24.286Z,8.40
2023-02-05T04:08:52.011Z,7.82
2023-02-05T04:11:19.807Z,7.70
2023-02-05T04:13:47.525Z,8.07
2023-02-05T04:16:15.266Z,8.40
2023-02-05T04:18:42.977Z,8.38
2023-02-05T04:21:12.066Z,7.25
2023-02-05T04:23:39.804Z,7.68
2023-02-05T04:26:07.515Z,7.93
2023-02-05T04:28:35.699Z,7.53
2023-02-05T04:31:03.438Z,7.75
2023-02-05T04:33:31.120Z,7.68
2023-02-05T04:35:59.922Z,7.78
2023-02-05T04:38:29.540Z,7.78
2023-02-05T04:40:57.332Z,7.00
2023-02-05T04:43:27.778Z,7.78
2023-02-05T04:45:55.595Z,7.63
2023-02-05T04:48:23.319Z,7.90
2023-02-05T04:50:51.029Z,7.70
2023-02-05T04:53:18.784Z,6.78
2023-02-05T04:55:47.871Z,7.07
2023-02-05T04:58:15.536Z,7.82
2023-02-05T05:00:43.302Z,7.93
2023-02-05T05:03:11.005Z,7.13
2023-02-05T05:05:38.767Z,8.02
2023-02-05T05:08:06.626Z,8.05
2023-02-05T05:10:34.340Z,8.00
2023-02-05T05:13:03.419Z,7.57
2023-02-05T05:15:31.133Z,7.72
2023-02-05T05:17:58.911Z,7.93
2023-02-05T05:20:26.636Z,7.25
2023-02-05T05:22:54.406Z,7.32
2023-02-05T05:25:22.139Z,7.88
2023-02-05T05:27:50.331Z,6.97
2023-02-05T05:30:19.885Z,7.28
2023-02-05T05:32:47.635Z,7.22
2023-02-05T05:35:18.668Z,7.40
2023-02-05T05:37:46.361Z,7.43
2023-02-05T05:40:31.664Z,7.20
2023-02-05T05:43:16.934Z,7.35
2023-02-05T05:45:46.106Z,7.75
2023-02-05T05:48:13.849Z,6.90
2023-02-05T05:50:41.673Z,7.25
2023-02-05T05:53:09.439Z,6.97
2023-02-05T05:55:40.110Z,7.07
2023-02-05T05:58:07.844Z,7.60
2023-02-05T06:00:35.712Z,6.57
2023-02-05T06:03:05.247Z,6.93
2023-02-05T06:05:33.526Z,6.65
2023-02-05T06:08:01.479Z,6.20
2023-02-05T06:10:29.321Z,6.60
2023-02-05T06:12:57.804Z,6.60
2023-02-05T06:15:26.705Z,7.18
2023-02-05T06:17:54.767Z,7.10
2023-02-05T06:20:24.227Z,6.70
2023-02-05T06:22:52.551Z,6.88
2023-02-05T06:25:20.484Z,6.75
2023-02-05T06:27:48.212Z,6.63
2023-02-05T06:30:16.036Z,7.25
2023-02-05T06:32:43.760Z,6.60
2023-02-05T06:35:11.567Z,6.40
2023-02-05T06:37:48.072Z,6.63
2023-02-05T06:40:18.062Z,7.28
2023-02-05T06:42:46.432Z,7.07
2023-02-05T06:45:14.128Z,6.30
2023-02-05T06:47:41.875Z,6.70
2023-02-05T06:50:10.231Z,6.75
2023-02-05T06:52:39.083Z,6.78
2023-02-05T06:55:08.674Z,7.32
2023-02-05T06:57:36.423Z,6.65
2023-02-05T07:00:05.521Z,6.70
2023-02-05T07:02:33.697Z,7.43
2023-02-05T07:05:01.504Z,6.97
2023-02-05T07:07:29.286Z,6.55
2023-02-05T07:09:57.022Z,6.80
2023-02-05T07:12:26.176Z,7.07
2023-02-05T07:14:53.918Z,7.72
2023-02-05T07:17:21.938Z,6.50
2023-02-05T07:19:49.750Z,6.93
2023-02-05T07:22:17.527Z,6.45
2023-02-05T07:24:45.337Z,6.18
2023-02-05T07:27:13.060Z,7.05
2023-02-05T07:29:42.170Z,6.63
2023-02-05T07:32:10.093Z,6.70
2023-02-05T07:34:38.069Z,6.32
2023-02-05T07:37:05.931Z,6.97
2023-02-05T07:39:34.388Z,7.20
2023-02-05T07:42:02.233Z,6.03
2023-02-05T07:44:29.951Z,6.53
2023-02-05T07:46:59.058Z,6.40
2023-02-05T07:49:26.873Z,5.95
2023-02-05T07:51:54.585Z,5.63
2023-02-05T07:54:22.373Z,6.50
2023-02-05T07:56:50.076Z,6.72
2023-02-05T07:59:17.800Z,6.78
2023-02-05T08:01:45.574Z,7.05
2023-02-05T08:04:14.734Z,6.80
2023-02-05T08:06:43.122Z,6.97
2023-02-05T08:09:11.664Z,7.10
2023-02-05T08:11:39.567Z,7.20
2023-02-05T08:14:07.321Z,7.95
2023-02-05T08:16:35.070Z,7.20
2023-02-05T08:19:02.827Z,8.13
2023-02-05T08:21:31.927Z,8.80
2023-02-05T08:24:01.012Z,8.95
2023-02-05T08:26:28.819Z,9.55
2023-02-05T08:28:56.630Z,9.52
2023-02-05T08:31:24.400Z,8.68
2023-02-05T08:33:54.757Z,8.15
2023-02-05T08:36:22.726Z,9.68
2023-02-05T08:38:51.841Z,9.95
2023-02-05T08:41:19.708Z,9.85
2023-02-05T08:43:49.186Z,9.27
2023-02-05T08:46:20.180Z,9.68
2023-02-05T08:48:48.436Z,9.85
2023-02-05T08:51:17.470Z,9.13
2023-02-05T08:53:45.242Z,9.13
2023-02-05T08:56:15.566Z,8.75
2023-02-05T08:58:43.494Z,9.13
2023-02-05T09:01:14.206Z,7.78
2023-02-05T09:03:42.368Z,8.25
2023-02-05T09:06:12.497Z,8.32
2023-02-05T09:08:40.294Z,7.60
2023-02-05T09:11:08.738Z,7.72
2023-02-05T09:13:37.890Z,8.02
2023-02-05T09:16:06.254Z,8.23
2023-02-05T09:18:33.969Z,7.95
2023-02-05T09:21:01.693Z,7.22
2023-02-05T09:23:29.986Z,7.53
2023-02-05T09:25:59.830Z,8.02
2023-02-05T09:28:27.617Z,7.25
2023-02-05T09:30:56.954Z,8.27
2023-02-05T09:33:24.745Z,7.38
2023-02-05T09:35:52.477Z,6.88
2023-02-05T09:38:20.169Z,7.45
2023-02-05T09:40:57.480Z,7.82
2023-02-05T09:43:44.936Z,7.63
2023-02-05T09:46:21.201Z,7.60
2023-02-05T09:48:54.812Z,7.88
2023-02-05T09:51:33.194Z,6.85
2023-02-05T09:54:07.634Z,6.47
2023-02-05T09:56:37.015Z,6.57
2023-02-05T09:59:06.530Z,6.80
2023-02-05T10:01:44.394Z,7.15
2023-02-05T10:04:12.461Z,6.03
2023-02-05T10:06:56.852Z,5.57
2023-02-05T10:09:51.462Z,6.18
2023-02-05T10:12:28.355Z,6.15
2023-02-05T10:15:14.774Z,4.93
2023-02-05T10:17:56.513Z,5.35
2023-02-05T10:20:42.350Z,5.05
2023-02-05T10:23:16.596Z,4.55
2023-02-05T10:26:00.179Z,6.35
2023-02-05T10:28:44.306Z,9.25
2023-02-05T10:31:23.718Z,5.30
2023-02-05T10:33:56.169Z,4.50
2023-02-05T10:36:26.235Z,5.00
2023-02-05T10:38:56.999Z,3.83
2023-02-05T10:41:31.254Z,3.80
2023-02-05T10:44:05.904Z,4.40
2023-02-05T10:46:36.432Z,3.63
2023-02-05T10:49:14.560Z,3.65
2023-02-05T10:51:43.977Z,3.83
2023-02-05T10:54:20.324Z,3.60
2023-02-05T10:56:48.951Z,4.05
2023-02-05T10:59:22.792Z,3.55
2023-02-05T11:01:51.800Z,3.38
2023-02-05T11:04:26.815Z,3.78
2023-02-05T11:06:54.983Z,4.10
2023-02-05T11:09:32.243Z,3.83
2023-02-05T11:12:01.953Z,3.65
2023-02-05T11:14:34.126Z,3.90
2023-02-05T11:17:08.453Z,3.67
2023-02-05T11:19:38.731Z,4.50
2023-02-05T11:22:09.469Z,4.53
2023-02-05T11:24:39.677Z,4.13
2023-02-05T11:27:26.727Z,5.35
2023-02-05T11:29:56.774Z,3.67
2023-02-05T11:32:34.182Z,3.22
2023-02-05T11:35:26.993Z,3.70
2023-02-05T11:38:01.684Z,2.70
2023-02-05T11:40:33.185Z,3.00
2023-02-05T11:43:05.114Z,3.25
2023-02-05T11:45:35.471Z,2.83
2023-02-05T11:48:08.702Z,3.15
2023-02-05T11:50:38.484Z,3.47
2023-02-05T11:53:14.458Z,3.50
2023-02-05T11:55:43.032Z,3.03
2023-02-05T11:58:34.843Z,2.95
2023-02-05T12:01:06.997Z,3.40
2023-02-05T12:03:36.606Z,2.88
2023-02-05T12:06:18.813Z,3.35
2023-02-05T12:08:51.031Z,3.58
2023-02-05T12:11:28.290Z,3.00
2023-02-05T12:14:05.472Z,3.17
2023-02-05T12:16:48.627Z,3.10
2023-02-05T12:19:22.299Z,3.53
2023-02-05T12:22:00.541Z,3.20
2023-02-05T12:24:56.593Z,3.20
2023-02-05T12:27:40.175Z,2.60
2023-02-05T12:30:27.779Z,2.63
2023-02-05T12:33:06.841Z,3.28
2023-02-05T12:35:48.903Z,2.90
2023-02-05T12:38:32.422Z,4.18
2023-02-05T12:41:14.209Z,3.13
2023-02-05T12:43:47.812Z,4.15
2023-02-05T12:46:37.103Z,4.53
2023-02-05T12:49:19.799Z,4.22
2023-02-05T12:52:01.211Z,4.43
2023-02-05T12:54:46.630Z,5.50
2023-02-05T12:57:19.970Z,8.38
2023-02-05T12:59:51.784Z,4.13
2023-02-05T13:02:27.305Z,48.97
2023-02-05T13:07:36.201Z,8.43
2023-02-05T13:10:07.960Z,12.90
2023-02-05T13:12:40.285Z,32.38
2023-02-05T13:15:17.722Z,6.10
2023-02-05T13:17:55.621Z,5.18
2023-02-05T13:20:47.043Z,13.05
2023-02-05T13:23:34.258Z,5.75
2023-02-05T13:26:23.715Z,6.63
2023-02-05T13:28:55.261Z,8.10
2023-02-05T13:31:31.308Z,5.78
2023-02-05T13:34:05.121Z,6.68
2023-02-05T13:37:11.153Z,5.40
2023-02-05T13:40:08.065Z,4.95
2023-02-05T13:43:15.533Z,5.40
2023-02-05T13:46:20.090Z,5.22
2023-02-05T13:49:20.781Z,5.70
2023-02-05T13:52:07.571Z,6.15
2023-02-05T13:55:09.051Z,6.60
2023-02-05T13:58:12.853Z,6.63
2023-02-05T14:00:43.421Z,6.07
2023-02-05T14:03:27.113Z,7.53
2023-02-05T14:05:55.042Z,6.78
2023-02-05T14:08:26.402Z,5.70
2023-02-05T14:11:00.262Z,7.50
2023-02-05T14:13:33.607Z,7.88
2023-02-05T14:16:34.289Z,8.95
2023-02-05T14:19:15.222Z,9.95
2023-02-05T14:21:58.179Z,8.23
2023-02-05T14:24:40.314Z,8.85
2023-02-05T14:27:41.945Z,8.23
2023-02-05T14:30:46.154Z,8.50
2023-02-05T14:33:36.171Z,8.70
2023-02-05T14:36:36.767Z,8.10
2023-02-05T14:39:18.702Z,6.75
2023-02-05T14:41:51.937Z,6.90
2023-02-05T14:44:24.999Z,6.60
2023-02-05T14:47:05.331Z,7.25
2023-02-05T14:49:43.241Z,7.10
2023-02-05T14:52:28.070Z,6.43
2023-02-05T14:55:00.336Z,38.58
2023-02-05T14:57:35.860Z,11.45
2023-02-05T15:03:00.750Z,9.95
2023-02-05T15:05:36.176Z,7.03
2023-02-05T15:08:12.157Z,7.97
2023-02-05T15:10:49.927Z,6.32
2023-02-05T15:13:20.078Z,37.88
2023-02-05T15:16:22.463Z,7.40
2023-02-05T15:18:54.014Z,5.95
2023-02-05T15:21:26.390Z,6.72
2023-02-05T15:24:01.728Z,7.70
2023-02-05T15:26:40.686Z,6.93
2023-02-05T15:29:14.953Z,5.97
2023-02-05T15:31:47.630Z,6.90
2023-02-05T15:34:30.875Z,7.20
2023-02-05T15:37:04.518Z,7.82
2023-02-05T15:39:43.338Z,8.93
2023-02-05T15:42:17.226Z,7.65
2023-02-05T15:44:45.016Z,9.35
2023-02-05T15:47:19.680Z,8.00
2023-02-05T15:49:52.696Z,9.25
2023-02-05T15:52:23.575Z,8.15
2023-02-05T15:54:52.873Z,7.25
2023-02-05T15:57:24.236Z,6.95
2023-02-05T15:59:54.036Z,7.45
2023-02-05T16:02:24.054Z,8.90
2023-02-05T16:04:58.627Z,7.93
2023-02-05T16:07:29.424Z,9.90
2023-02-05T16:09:59.663Z,9.18
2023-02-05T16:12:30.461Z,8.55
2023-02-05T16:15:02.362Z,10.40
2023-02-05T16:17:36.692Z,9.07
2023-02-05T16:20:17.598Z,10.30
2023-02-05T16:22:48.864Z,10.90
2023-02-05T16:25:27.962Z,12.80
2023-02-05T16:27:57.082Z,11.43
2023-02-05T16:30:34.928Z,9.88
2023-02-05T16:33:05.061Z,7.88
2023-02-05T16:35:38.518Z,10.57
2023-02-05T16:38:09.209Z,8.90
2023-02-05T16:40:40.897Z,10.90
2023-02-05T16:43:22.060Z,12.05
2023-02-05T16:46:23.969Z,12.32
2023-02-05T16:48:53.702Z,12.02
2023-02-05T16:51:35.474Z,12.02
2023-02-05T16:54:29.769Z,12.13
2023-02-05T16:57:03.194Z,12.27
2023-02-05T16:59:34.812Z,12.55
2023-02-05T17:02:03.484Z,18.63
2023-02-05T17:04:34.676Z,18.00
2023-02-05T17:07:07.207Z,17.52
2023-02-05T17:09:37.235Z,15.90
2023-02-05T17:12:41.466Z,15.27
2023-02-05T17:15:37.492Z,15.50
2023-02-05T17:18:23.720Z,16.05
2023-02-05T17:20:51.500Z,14.73
2023-02-05T17:23:20.625Z,15.10
2023-02-05T17:25:55.092Z,15.18
2023-02-05T17:28:25.865Z,15.27
2023-02-05T17:30:55.166Z,18.42
2023-02-05T17:33:24.760Z,15.30
2023-02-05T17:35:52.748Z,14.77
2023-02-05T17:38:23.552Z,15.18
2023-02-05T17:41:11.481Z,16.08
2023-02-05T17:43:39.573Z,17.27
2023-02-05T17:46:12.802Z,16.45
2023-02-05T17:48:40.652Z,16.73
2023-02-05T17:51:12.290Z,17.63
2023-02-05T17:53:44.004Z,19.10
2023-02-05T17:56:13.204Z,17.83
2023-02-05T17:58:41.771Z,19.55
2023-02-05T18:01:11.817Z,19.77
2023-02-05T18:03:39.726Z,27.25
2023-02-05T18:06:07.573Z,25.63
2023-02-05T18:08:37.113Z,18.98
2023-02-05T18:11:06.482Z,18.25
2023-02-05T18:13:36.706Z,18.05
2023-02-05T18:16:05.038Z,17.98
2023-02-05T18:18:35.777Z,19.63
2023-02-05T18:21:03.499Z,18.92
2023-02-05T18:23:31.390Z,19.85
2023-02-05T18:26:00.220Z,18.42
2023-02-05T18:28:29.679Z,18.85
2023-02-05T18:30:59.093Z,18.17
2023-02-05T18:33:26.998Z,19.77
2023-02-05T18:35:55.194Z,20.17
2023-02-05T18:38:23.474Z,19.00
2023-02-05T18:40:51.493Z,18.58
2023-02-05T18:43:19.363Z,22.95
2023-02-05T18:45:48.462Z,22.98
2023-02-05T18:48:18.278Z,20.85
2023-02-05T18:50:45.982Z,20.42
2023-02-05T18:53:13.711Z,19.77
2023-02-05T18:55:41.398Z,20.95
2023-02-05T18:58:09.086Z,19.15
2023-02-05T19:00:37.477Z,19.00
2023-02-05T19:03:06.727Z,19.13
2023-02-05T19:05:35.751Z,21.00
2023-02-05T19:08:06.266Z,20.65
2023-02-05T19:10:34.429Z,20.00
2023-02-05T19:13:02.308Z,20.70
2023-02-05T19:15:31.593Z,19.92
2023-02-05T19:17:59.304Z,19.58
2023-02-05T19:20:28.367Z,20.80
2023-02-05T19:22:56.064Z,21.48
2023-02-05T19:25:24.059Z,21.77
2023-02-05T19:27:53.127Z,19.30
2023-02-05T19:30:20.970Z,21.23
2023-02-05T19:32:48.717Z,21.20
2023-02-05T19:35:16.486Z,21.15
2023-02-05T19:37:45.561Z,21.85
2023-02-05T19:40:15.271Z,20.33
2023-02-05T19:42:44.596Z,22.02
2023-02-05T19:45:12.383Z,22.42
2023-02-05T19:47:40.087Z,22.08
2023-02-05T19:50:08.614Z,22.77
2023-02-05T19:52:39.350Z,21.98
2023-02-05T19:55:09.032Z,22.63
2023-02-05T19:57:36.726Z,23.77
2023-02-05T20:00:05.265Z,22.90
2023-02-05T20:02:35.363Z,27.88
2023-02-05T20:05:03.120Z,25.15
2023-02-05T20:07:33.829Z,22.48
2023-02-05T20:10:01.678Z,23.13
2023-02-05T20:12:30.749Z,21.85
2023-02-05T20:14:58.514Z,23.15
2023-02-05T20:17:26.304Z,23.60
2023-02-05T20:20:02.559Z,23.48
2023-02-05T20:22:36.862Z,22.27
2023-02-05T20:25:04.972Z,23.08
2023-02-05T20:27:34.021Z,23.45
2023-02-05T20:30:18.925Z,21.52
2023-02-05T20:32:46.646Z,22.83
2023-02-05T20:35:14.340Z,22.67
2023-02-05T20:37:42.087Z,22.52
2023-02-05T20:40:11.055Z,20.48
2023-02-05T20:42:40.145Z,21.77
2023-02-05T20:45:08.676Z,22.30
2023-02-05T20:47:36.459Z,21.73
2023-02-05T20:50:04.265Z,21.67
2023-02-05T20:52:32.030Z,21.73
2023-02-05T20:54:59.798Z,22.58
2023-02-05T20:57:27.557Z,22.50
2023-02-05T20:59:56.635Z,23.42
2023-02-05T21:02:24.408Z,22.20
2023-02-05T21:04:52.816Z,22.15
2023-02-05T21:07:25.081Z,22.33
2023-02-05T21:09:53.531Z,24.00
2023-02-05T21:12:21.273Z,21.67
2023-02-05T21:14:51.514Z,20.60
2023-02-05T21:17:20.580Z,21.67
2023-02-05T21:19:48.269Z,22.33
2023-02-05T21:22:15.979Z,22.15
2023-02-05T21:24:43.720Z,21.60
2023-02-05T21:27:11.946Z,22.50
2023-02-05T21:29:39.632Z,20.95
2023-02-05T21:32:08.069Z,19.30
2023-02-05T21:34:37.117Z,20.52
2023-02-05T21:37:04.788Z,18.98
2023-02-05T21:39:32.968Z,18.95
2023-02-05T21:42:06.645Z,18.45
2023-02-05T21:44:34.317Z,18.25
2023-02-05T21:47:02.006Z,15.88
2023-02-05T21:49:29.705Z,16.35
2023-02-05T21:51:58.779Z,15.38
2023-02-05T21:54:26.471Z,14.57
2023-02-05T21:56:54.131Z,12.85
2023-02-05T21:59:23.544Z,12.88
2023-02-05T22:01:51.323Z,12.13
2023-02-05T22:04:21.909Z,11.10
2023-02-05T22:06:51.249Z,11.45
2023-02-05T22:09:20.585Z,11.65
2023-02-05T22:11:50.376Z,11.80
2023-02-05T22:14:18.111Z,12.05
2023-02-05T22:16:46.040Z,12.48
2023-02-05T22:19:13.893Z,13.18
2023-02-05T22:21:43.485Z,11.85
2023-02-05T22:24:15.102Z,13.02
2023-02-05T22:26:45.199Z,12.32
2023-02-05T22:29:16.430Z,12.00
2023-02-05T22:31:46.326Z,13.65
2023-02-05T22:34:14.075Z,12.75
2023-02-05T22:36:41.832Z,12.50
2023-02-05T22:39:09.631Z,12.55
2023-02-05T22:41:39.294Z,12.65
2023-02-05T22:44:10.002Z,12.73
2023-02-05T22:46:42.469Z,12.27
2023-02-05T22:49:15.113Z,12.07
2023-02-05T22:51:45.588Z,13.25
2023-02-05T22:54:14.676Z,13.43
2023-02-05T23:01:25.697Z,13.32
2023-02-05T23:03:56.120Z,13.10
2023-02-05T23:06:25.515Z,13.75
2023-02-05T23:08:55.044Z,12.68
2023-02-05T23:11:23.216Z,12.30
2023-02-05T23:13:50.968Z,12.73
2023-02-05T23:16:20.598Z,12.40
2023-02-05T23:18:50.522Z,12.07
2023-02-05T23:21:20.566Z,13.27
2023-02-05T23:23:49.566Z,13.45
2023-02-05T23:26:19.547Z,12.57
2023-02-05T23:28:47.770Z,12.52
2023-02-05T23:31:16.203Z,12.18
2023-02-05T23:33:44.096Z,13.05
2023-02-05T23:36:13.223Z,13.73
2023-02-05T23:38:41.316Z,13.30
2023-02-05T23:41:09.315Z,13.07
2023-02-05T23:43:38.242Z,12.32
2023-02-05T23:46:08.903Z,13.80
2023-02-05T23:48:36.765Z,13.20
2023-02-05T23:51:04.603Z,14.13
2023-02-05T23:53:33.629Z,14.15
2023-02-05T23:56:03.717Z,14.68
2023-02-05T23:58:31.397Z,14.43
